Time;durP1;ratioP1;P1;durP2;ratioP2;P2;SDS_P1;SDS_P2;PMS_P1;PMS_P2;Temp;Humidity;BMP_temperature;BMP_pressure;BME280_temperature;BME280_humidity;BME280_pressure;Samples;Min_cycle;Max_cycle;Signal;HPM_P1;HPM_P2
2021/07/17 00:01:26;;;;;;;37.08;10.07;;;;;;;;;;5028217;28;20098;-83
2021/07/17 00:03:52;;;;;;;31.85;9.85;;;;;;;;;;5028488;28;20029;-84
2021/07/17 00:06:18;;;;;;;25.85;9.60;;;;;;;;;;5027392;28;20093;-85
2021/07/17 00:08:46;;;;;;;25.45;9.70;;;;;;;;;;5029160;28;20026;-84
2021/07/17 00:11:11;;;;;;;33.13;10.07;;;;;;;;;;5024207;28;20033;-85
2021/07/17 00:13:37;;;;;;;27.42;9.98;;;;;;;;;;5028207;28;20056;-85
2021/07/17 00:16:02;;;;;;;40.75;10.10;;;;;;;;;;5028825;28;20022;-87
2021/07/17 00:18:28;;;;;;;31.27;10.57;;;;;;;;;;5027054;28;20021;-86
2021/07/17 00:20:53;;;;;;;35.30;10.35;;;;;;;;;;5025559;28;20029;-85
2021/07/17 00:23:18;;;;;;;34.75;9.98;;;;;;;;;;5025207;28;20026;-85
2021/07/17 00:25:47;;;;;;;28.67;10.88;;;;;;;;;;5025169;28;20080;-85
2021/07/17 00:28:13;;;;;;;38.70;11.90;;;;;;;;;;5026784;28;20025;-85
2021/07/17 00:30:39;;;;;;;29.85;10.45;;;;;;;;;;5025773;28;20076;-84
2021/07/17 00:33:04;;;;;;;31.40;10.93;;;;;;;;;;5032879;28;20030;-84
2021/07/17 00:35:30;;;;;;;29.80;10.05;;;;;;;;;;5031299;28;20018;-86
2021/07/17 00:37:55;;;;;;;31.40;9.80;;;;;;;;;;5027052;28;20026;-85
2021/07/17 00:40:21;;;;;;;27.33;10.13;;;;;;;;;;5026035;28;20025;-85
2021/07/17 00:42:50;;;;;;;32.67;10.18;;;;;;;;;;5025193;28;20393;-85
2021/07/17 00:45:17;;;;;;;35.53;10.00;;;;;;;;;;5023883;28;20172;-84
2021/07/17 00:47:43;;;;;;;27.65;10.27;;;;;;;;;;5025636;28;20030;-85
2021/07/17 00:50:12;;;;;;;29.10;10.25;;;;;;;;;;5027872;28;20382;-86
2021/07/17 00:52:39;;;;;;;35.13;10.48;;;;;;;;;;5028816;28;20036;-85
2021/07/17 00:55:06;;;;;;;31.85;10.45;;;;;;;;;;5028618;28;20026;-84
2021/07/17 00:57:34;;;;;;;38.65;11.05;;;;;;;;;;5028025;28;20061;-83
2021/07/17 01:00:01;;;;;;;28.98;10.50;;;;;;;;;;5028283;28;20444;-84
2021/07/17 01:02:34;;;;;;;37.20;11.02;;;;;;;;;;5027366;28;20045;-85
2021/07/17 01:04:59;;;;;;;;;;;;;;;;;;5027396;28;20033;-85
2021/07/17 01:07:25;;;;;;;34.45;10.02;;;;;;;;;;5025873;28;19932;-83
2021/07/17 01:09:52;;;;;;;32.38;11.07;;;;;;;;;;5027030;28;20038;-83
2021/07/17 01:12:18;;;;;;;34.90;10.18;;;;;;;;;;5028482;28;20050;-83
2021/07/17 01:14:43;;;;;;;35.25;10.15;;;;;;;;;;5027398;28;20057;-84
2021/07/17 01:17:09;;;;;;;36.92;9.80;;;;;;;;;;5028223;28;20034;-85
2021/07/17 01:19:34;;;;;;;46.53;10.82;;;;;;;;;;5028692;28;20032;-84
2021/07/17 01:22:00;;;;;;;36.47;10.80;;;;;;;;;;5030836;28;20032;-83
2021/07/17 01:24:25;;;;;;;43.63;11.25;;;;;;;;;;5027217;28;20038;-83
2021/07/17 01:26:52;;;;;;;33.47;10.75;;;;;;;;;;5028067;28;20021;-84
2021/07/17 01:29:18;;;;;;;42.53;12.10;;;;;;;;;;5028007;28;20018;-84
2021/07/17 01:31:44;;;;;;;40.33;11.57;;;;;;;;;;5032429;28;20032;-84
2021/07/17 01:34:10;;;;;;;35.40;10.60;;;;;;;;;;5031656;28;20018;-84
2021/07/17 01:36:36;;;;;;;38.67;11.75;;;;;;;;;;5030246;28;20078;-84
2021/07/17 01:39:02;;;;;;;45.30;10.50;;;;;;;;;;5030446;28;20109;-85
2021/07/17 01:41:28;;;;;;;38.13;10.85;;;;;;;;;;5028034;28;20394;-85
2021/07/17 01:43:55;;;;;;;32.60;10.13;;;;;;;;;;5030747;28;20055;-85
2021/07/17 01:46:21;;;;;;;44.47;11.48;;;;;;;;;;5028163;28;20036;-85
2021/07/17 01:48:57;;;;;;;35.85;10.52;;;;;;;;;;5029290;28;20389;-86
2021/07/17 01:51:23;;;;;;;44.67;11.48;;;;;;;;;;5029858;28;20041;-85
2021/07/17 01:53:50;;;;;;;40.00;12.85;;;;;;;;;;5031520;28;20021;-85
2021/07/17 01:56:16;;;;;;;34.70;10.35;;;;;;;;;;5032310;28;20026;-87
2021/07/17 01:58:42;;;;;;;33.20;10.05;;;;;;;;;;5033404;28;20060;-83
2021/07/17 02:01:08;;;;;;;32.95;10.38;;;;;;;;;;5040001;28;20017;-83
2021/07/17 02:03:36;;;;;;;31.88;11.02;;;;;;;;;;5034347;28;20369;-86
2021/07/17 02:06:02;;;;;;;32.50;10.20;;;;;;;;;;5029468;28;20113;-85
2021/07/17 02:08:27;;;;;;;34.60;10.38;;;;;;;;;;5032785;28;20052;-85
2021/07/17 02:10:53;;;;;;;35.67;9.98;;;;;;;;;;5035776;28;20037;-84
2021/07/17 02:13:18;;;;;;;35.90;9.43;;;;;;;;;;5030549;28;20029;-85
2021/07/17 02:15:49;;;;;;;41.75;10.15;;;;;;;;;;5026096;28;20026;-84
2021/07/17 02:18:16;;;;;;;34.17;10.07;;;;;;;;;;5027900;28;20080;-85
2021/07/17 02:20:42;;;;;;;33.20;9.93;;;;;;;;;;5026255;28;20029;-84
2021/07/17 02:23:09;;;;;;;35.22;10.38;;;;;;;;;;5027735;28;20025;-85
2021/07/17 02:25:35;;;;;;;39.97;10.38;;;;;;;;;;5027713;28;20022;-84
2021/07/17 02:28:00;;;;;;;32.20;9.70;;;;;;;;;;5027612;28;20029;-85
2021/07/17 02:30:27;;;;;;;30.25;9.77;;;;;;;;;;5027634;28;20102;-84
2021/07/17 02:32:52;;;;;;;37.33;12.02;;;;;;;;;;5028156;28;20040;-84
2021/07/17 02:35:17;;;;;;;42.97;11.57;;;;;;;;;;5024947;28;20112;-84
2021/07/17 02:37:43;;;;;;;42.13;12.00;;;;;;;;;;5027448;28;20028;-83
2021/07/17 02:40:09;;;;;;;36.47;10.63;;;;;;;;;;5028718;28;20029;-83
2021/07/17 02:42:35;;;;;;;37.08;10.15;;;;;;;;;;5028803;28;20025;-85
2021/07/17 02:45:00;;;;;;;36.30;10.77;;;;;;;;;;5026695;28;20021;-84
2021/07/17 02:47:25;;;;;;;35.50;9.18;;;;;;;;;;5026963;28;20049;-84
2021/07/17 02:49:52;;;;;;;37.20;10.45;;;;;;;;;;5028248;28;20516;-85
2021/07/17 02:52:17;;;;;;;46.47;10.95;;;;;;;;;;5027654;28;20370;-84
2021/07/17 02:54:43;;;;;;;37.28;10.45;;;;;;;;;;5027955;28;20073;-84
2021/07/17 02:57:08;;;;;;;33.95;9.57;;;;;;;;;;5027486;28;20018;-84
2021/07/17 02:59:33;;;;;;;35.65;10.27;;;;;;;;;;5031453;28;20397;-85
2021/07/17 03:01:59;;;;;;;45.60;11.02;;;;;;;;;;5029416;28;20032;-85
2021/07/17 03:04:24;;;;;;;44.35;10.13;;;;;;;;;;5029472;28;20367;-84
2021/07/17 03:06:49;;;;;;;39.80;11.13;;;;;;;;;;5028949;28;20029;-85
2021/07/17 03:09:15;;;;;;;30.88;9.43;;;;;;;;;;5029186;28;20029;-84
2021/07/17 03:11:40;;;;;;;43.65;10.65;;;;;;;;;;5028489;28;20026;-84
2021/07/17 03:14:05;;;;;;;38.38;10.15;;;;;;;;;;5026974;28;20025;-84
2021/07/17 03:16:31;;;;;;;49.92;9.95;;;;;;;;;;5028240;28;20025;-84
2021/07/17 03:18:58;;;;;;;42.03;9.45;;;;;;;;;;5026971;28;20085;-84
2021/07/17 03:21:23;;;;;;;36.53;8.65;;;;;;;;;;5026536;28;20021;-85
2021/07/17 03:23:49;;;;;;;33.88;8.68;;;;;;;;;;5026404;28;20040;-85
2021/07/17 03:26:14;;;;;;;37.90;9.77;;;;;;;;;;5026395;28;20489;-84
2021/07/17 03:28:40;;;;;;;35.75;9.00;;;;;;;;;;5025314;28;20026;-84
2021/07/17 03:31:05;;;;;;;45.00;10.63;;;;;;;;;;5027638;28;20022;-84
2021/07/17 03:33:32;;;;;;;39.55;9.43;;;;;;;;;;5031273;28;20097;-86
2021/07/17 03:35:57;;;;;;;34.08;9.27;;;;;;;;;;5027611;28;20032;-85
2021/07/17 03:38:24;;;;;;;42.65;10.10;;;;;;;;;;5028383;28;20041;-85
2021/07/17 03:40:49;;;;;;;32.22;9.13;;;;;;;;;;5026919;28;20448;-84
2021/07/17 03:43:15;;;;;;;36.50;9.50;;;;;;;;;;5032070;28;20026;-84
2021/07/17 03:45:40;;;;;;;34.92;9.05;;;;;;;;;;5032398;28;20053;-86
2021/07/17 03:48:06;;;;;;;28.88;8.93;;;;;;;;;;5035035;28;20029;-83
2021/07/17 03:50:32;;;;;;;37.60;9.10;;;;;;;;;;5030159;28;20021;-84
2021/07/17 03:52:57;;;;;;;41.55;10.18;;;;;;;;;;5029312;28;20109;-85
2021/07/17 03:55:22;;;;;;;38.88;9.65;;;;;;;;;;5027270;28;20049;-84
2021/07/17 03:57:48;;;;;;;38.97;9.38;;;;;;;;;;5027799;28;20026;-86
2021/07/17 04:00:17;;;;;;;34.45;10.05;;;;;;;;;;5026556;28;20409;-84
2021/07/17 04:02:44;;;;;;;31.95;9.07;;;;;;;;;;5026740;28;20053;-86
2021/07/17 04:05:15;;;;;;;40.20;9.90;;;;;;;;;;5027642;28;20500;-85
2021/07/17 04:07:41;;;;;;;35.25;9.10;;;;;;;;;;5025630;28;20045;-85
2021/07/17 04:10:08;;;;;;;38.00;9.52;;;;;;;;;;5025141;28;20033;-84
2021/07/17 04:12:34;;;;;;;36.42;9.75;;;;;;;;;;5025825;28;20060;-85
2021/07/17 04:15:00;;;;;;;37.10;8.15;;;;;;;;;;5026612;28;20092;-85
2021/07/17 04:17:26;;;;;;;31.75;9.18;;;;;;;;;;5026420;28;20037;-86
2021/07/17 04:19:52;;;;;;;35.17;8.90;;;;;;;;;;5027927;28;20022;-86
2021/07/17 04:22:18;;;;;;;31.65;9.25;;;;;;;;;;5026657;28;20029;-84
2021/07/17 04:24:44;;;;;;;37.53;9.10;;;;;;;;;;5026118;28;20077;-84
2021/07/17 04:27:09;;;;;;;34.00;9.43;;;;;;;;;;5024133;28;20028;-84
2021/07/17 04:29:34;;;;;;;34.22;9.27;;;;;;;;;;5024621;28;20023;-85
2021/07/17 04:32:00;;;;;;;31.42;9.75;;;;;;;;;;5025947;28;20030;-85
2021/07/17 04:34:26;;;;;;;31.88;8.80;;;;;;;;;;5024122;28;20089;-85
2021/07/17 04:36:53;;;;;;;36.70;9.43;;;;;;;;;;5022042;28;20030;-84
2021/07/17 04:39:19;;;;;;;32.83;9.77;;;;;;;;;;5023057;28;20026;-84
2021/07/17 04:41:44;;;;;;;27.48;8.85;;;;;;;;;;5021546;28;20508;-83
2021/07/17 04:44:09;;;;;;;22.73;7.68;;;;;;;;;;5023671;28;20017;-85
2021/07/17 04:46:35;;;;;;;27.30;8.75;;;;;;;;;;5024844;28;20045;-82
2021/07/17 04:49:00;;;;;;;34.40;9.50;;;;;;;;;;5023822;28;20034;-85
2021/07/17 04:51:26;;;;;;;26.30;8.80;;;;;;;;;;5022418;28;20068;-85
2021/07/17 04:53:51;;;;;;;29.67;8.82;;;;;;;;;;5024820;28;20081;-83
2021/07/17 04:56:17;;;;;;;32.80;9.43;;;;;;;;;;5024848;28;20026;-85
2021/07/17 04:58:42;;;;;;;29.35;8.82;;;;;;;;;;5025239;28;20397;-85
2021/07/17 05:01:08;;;;;;;31.67;9.38;;;;;;;;;;5022344;28;20477;-84
2021/07/17 05:03:35;;;;;;;36.00;9.68;;;;;;;;;;5025140;28;20058;-84
2021/07/17 05:06:01;;;;;;;31.73;9.52;;;;;;;;;;5030275;28;20031;-85
2021/07/17 05:08:26;;;;;;;33.72;8.95;;;;;;;;;;5027904;28;20029;-85
2021/07/17 05:10:52;;;;;;;29.20;9.05;;;;;;;;;;5028647;28;20030;-86
2021/07/17 05:13:18;;;;;;;32.08;8.05;;;;;;;;;;5026791;28;20018;-86
2021/07/17 05:15:44;;;;;;;28.10;8.63;;;;;;;;;;5025474;28;20045;-85
2021/07/17 05:18:11;;;;;;;32.45;8.20;;;;;;;;;;5026221;28;20029;-85
2021/07/17 05:20:37;;;;;;;33.42;7.95;;;;;;;;;;5023169;28;20514;-84
2021/07/17 05:23:03;;;;;;;31.58;8.35;;;;;;;;;;5030877;28;20102;-84
2021/07/17 05:25:30;;;;;;;28.60;6.75;;;;;;;;;;5032586;28;20425;-87
2021/07/17 05:27:56;;;;;;;24.70;6.85;;;;;;;;;;5028837;28;20108;-86
2021/07/17 05:30:22;;;;;;;25.25;7.03;;;;;;;;;;5026977;28;20029;-85
2021/07/17 05:32:47;;;;;;;29.60;7.35;;;;;;;;;;5024830;28;20504;-85
2021/07/17 05:35:13;;;;;;;29.00;7.20;;;;;;;;;;5024411;28;20026;-86
2021/07/17 05:37:39;;;;;;;44.85;8.40;;;;;;;;;;5024678;28;20040;-85
2021/07/17 05:40:06;;;;;;;24.30;6.28;;;;;;;;;;5026620;28;20030;-85
2021/07/17 05:42:32;;;;;;;21.88;6.32;;;;;;;;;;5029913;28;20057;-85
2021/07/17 05:44:57;;;;;;;32.35;6.47;;;;;;;;;;5027506;28;20037;-84
2021/07/17 05:47:23;;;;;;;26.48;5.90;;;;;;;;;;5025976;28;20575;-85
2021/07/17 05:49:48;;;;;;;26.70;5.55;;;;;;;;;;5018307;28;20021;-84
2021/07/17 05:52:13;;;;;;;18.80;5.90;;;;;;;;;;5017686;28;20033;-85
2021/07/17 05:54:39;;;;;;;19.17;6.15;;;;;;;;;;5027794;28;20385;-85
2021/07/17 05:57:05;;;;;;;20.90;6.60;;;;;;;;;;5022595;28;20030;-85
2021/07/17 05:59:31;;;;;;;25.63;5.70;;;;;;;;;;5022216;28;20022;-85
2021/07/17 06:01:56;;;;;;;26.10;6.20;;;;;;;;;;5021781;28;20384;-83
2021/07/17 06:04:21;;;;;;;18.33;5.40;;;;;;;;;;5019338;28;20022;-84
2021/07/17 06:06:47;;;;;;;21.30;5.60;;;;;;;;;;5021056;28;20108;-85
2021/07/17 06:09:12;;;;;;;30.98;6.47;;;;;;;;;;5022386;28;20030;-84
2021/07/17 06:11:38;;;;;;;19.38;5.47;;;;;;;;;;5020812;28;20041;-84
2021/07/17 06:14:03;;;;;;;21.08;5.03;;;;;;;;;;5019256;28;20021;-84
2021/07/17 06:16:28;;;;;;;20.15;5.10;;;;;;;;;;5024435;28;20029;-84
2021/07/17 06:18:54;;;;;;;24.88;5.32;;;;;;;;;;5020983;28;20021;-86
2021/07/17 06:21:19;;;;;;;20.65;5.75;;;;;;;;;;5021315;28;20037;-83
2021/07/17 06:23:44;;;;;;;31.92;5.50;;;;;;;;;;5020857;28;20033;-83
2021/07/17 06:26:10;;;;;;;19.67;5.22;;;;;;;;;;5021201;28;20026;-84
2021/07/17 06:28:37;;;;;;;18.30;4.35;;;;;;;;;;5020164;28;20515;-84
2021/07/17 06:31:03;;;;;;;17.30;4.78;;;;;;;;;;5020090;28;20108;-83
2021/07/17 06:33:28;;;;;;;20.60;5.13;;;;;;;;;;5020454;28;20045;-83
2021/07/17 06:35:53;;;;;;;21.23;4.78;;;;;;;;;;5017822;28;20038;-83
2021/07/17 06:38:18;;;;;;;23.45;4.82;;;;;;;;;;5018684;28;20022;-84
2021/07/17 06:40:44;;;;;;;26.42;5.07;;;;;;;;;;5016709;28;20025;-83
2021/07/17 06:43:09;;;;;;;23.08;5.25;;;;;;;;;;5018521;28;20025;-83
2021/07/17 06:45:35;;;;;;;21.58;5.57;;;;;;;;;;5016853;28;20026;-84
2021/07/17 06:48:01;;;;;;;19.25;4.75;;;;;;;;;;5023848;28;20362;-87
2021/07/17 06:50:26;;;;;;;24.50;4.90;;;;;;;;;;5024222;28;20029;-84
2021/07/17 06:52:52;;;;;;;21.95;5.07;;;;;;;;;;5022308;28;20109;-84
2021/07/17 06:55:17;;;;;;;21.05;4.60;;;;;;;;;;5017451;28;20072;-83
2021/07/17 06:57:45;;;;;;;17.60;4.72;;;;;;;;;;5015324;28;20116;-83
2021/07/17 07:00:15;;;;;;;20.30;5.13;;;;;;;;;;5025862;28;20097;-83
2021/07/17 07:02:41;;;;;;;15.55;4.40;;;;;;;;;;5033315;28;20550;-85
2021/07/17 07:05:08;;;;;;;16.85;3.53;;;;;;;;;;5020566;28;20097;-85
2021/07/17 07:07:34;;;;;;;17.75;3.97;;;;;;;;;;5021039;28;20026;-85
2021/07/17 07:10:01;;;;;;;18.25;4.50;;;;;;;;;;5020045;28;20038;-85
2021/07/17 07:12:26;;;;;;;17.60;3.80;;;;;;;;;;5017910;28;20026;-84
2021/07/17 07:14:52;;;;;;;17.85;4.95;;;;;;;;;;5024990;28;20052;-84
2021/07/17 07:17:17;;;;;;;18.15;3.88;;;;;;;;;;5020140;28;20028;-84
2021/07/17 07:19:43;;;;;;;13.18;4.50;;;;;;;;;;5016179;28;20099;-85
2021/07/17 07:22:09;;;;;;;16.10;3.17;;;;;;;;;;5017826;28;20026;-85
2021/07/17 07:24:34;;;;;;;16.13;3.70;;;;;;;;;;5017678;28;20535;-85
2021/07/17 07:26:59;;;;;;;16.30;3.50;;;;;;;;;;5016329;28;20458;-84
2021/07/17 07:29:25;;;;;;;21.20;3.80;;;;;;;;;;5016029;28;20025;-85
2021/07/17 07:31:52;;;;;;;13.90;3.08;;;;;;;;;;5017441;28;20165;-84
2021/07/17 07:34:20;;;;;;;10.73;2.53;;;;;;;;;;5016292;28;20026;-84
2021/07/17 07:36:46;;;;;;;17.63;2.70;;;;;;;;;;5018464;28;20021;-84
2021/07/17 07:39:11;;;;;;;15.30;2.67;;;;;;;;;;5016814;28;20022;-84
2021/07/17 07:41:37;;;;;;;15.82;3.38;;;;;;;;;;5018309;28;20036;-84
2021/07/17 07:44:02;;;;;;;15.00;3.20;;;;;;;;;;5018018;28;20026;-84
2021/07/17 07:46:30;;;;;;;10.88;2.75;;;;;;;;;;5017576;28;20048;-84
2021/07/17 07:48:55;;;;;;;11.40;2.88;;;;;;;;;;5017756;28;20497;-84
2021/07/17 07:51:20;;;;;;;14.82;2.92;;;;;;;;;;5016933;28;20026;-84
2021/07/17 07:53:46;;;;;;;10.05;2.88;;;;;;;;;;5016266;28;20076;-84
2021/07/17 07:56:11;;;;;;;10.82;2.75;;;;;;;;;;5016327;28;20034;-85
2021/07/17 07:58:36;;;;;;;12.60;2.97;;;;;;;;;;5018383;28;20037;-85
2021/07/17 08:01:02;;;;;;;14.80;2.97;;;;;;;;;;5016419;28;20026;-84
2021/07/17 08:03:28;;;;;;;10.95;2.63;;;;;;;;;;5018499;28;20033;-86
2021/07/17 08:05:53;;;;;;;13.05;2.88;;;;;;;;;;5018722;28;20080;-83
2021/07/17 08:08:18;;;;;;;13.10;3.15;;;;;;;;;;5018915;28;20552;-84
2021/07/17 08:10:43;;;;;;;13.25;3.00;;;;;;;;;;5018903;28;20421;-85
2021/07/17 08:13:09;;;;;;;14.80;3.10;;;;;;;;;;5017242;28;20030;-84
2021/07/17 08:15:34;;;;;;;15.57;3.38;;;;;;;;;;5018856;28;20103;-84
2021/07/17 08:18:00;;;;;;;10.45;2.83;;;;;;;;;;5019289;28;20033;-85
2021/07/17 08:20:25;;;;;;;11.55;2.60;;;;;;;;;;5018127;28;20030;-84
2021/07/17 08:22:51;;;;;;;15.85;2.95;;;;;;;;;;5017456;28;20100;-85
2021/07/17 08:25:18;;;;;;;13.80;2.70;;;;;;;;;;5019476;28;20022;-84
2021/07/17 08:27:43;;;;;;;12.45;2.75;;;;;;;;;;5023299;28;20017;-86
2021/07/17 08:30:11;;;;;;;11.00;2.25;;;;;;;;;;5019188;28;20036;-85
2021/07/17 08:32:37;;;;;;;7.15;2.13;;;;;;;;;;5017009;28;20030;-84
2021/07/17 08:35:02;;;;;;;11.55;2.40;;;;;;;;;;5021484;28;20026;-85
2021/07/17 08:37:28;;;;;;;9.00;2.42;;;;;;;;;;5032210;28;20064;-85
2021/07/17 08:39:53;;;;;;;11.70;2.13;;;;;;;;;;5028953;28;20025;-86
2021/07/17 08:42:20;;;;;;;10.35;2.47;;;;;;;;;;5020857;28;20036;-86
2021/07/17 08:44:48;;;;;;;13.10;2.67;;;;;;;;;;5019604;28;20543;-85
2021/07/17 08:47:15;;;;;;;9.38;2.25;;;;;;;;;;5019614;28;20029;-84
2021/07/17 08:49:43;;;;;;;6.88;2.10;;;;;;;;;;5018699;28;20032;-84
2021/07/17 08:52:10;;;;;;;11.55;2.42;;;;;;;;;;5020750;28;20056;-84
2021/07/17 08:54:39;;;;;;;11.40;2.33;;;;;;;;;;5019024;28;20022;-84
2021/07/17 08:57:09;;;;;;;9.82;2.42;;;;;;;;;;5018505;28;20029;-85
2021/07/17 08:59:35;;;;;;;8.98;1.83;;;;;;;;;;5018749;28;20429;-84
2021/07/17 09:02:00;;;;;;;9.40;2.17;;;;;;;;;;5020622;28;20033;-85
2021/07/17 09:04:26;;;;;;;16.38;2.50;;;;;;;;;;5019011;28;20058;-85
2021/07/17 09:06:51;;;;;;;10.95;1.95;;;;;;;;;;5020132;28;20036;-84
2021/07/17 09:09:38;;;;;;;11.90;2.00;;;;;;;;;;5016196;28;20036;-84
2021/07/17 09:12:20;;;;;;;14.27;2.08;;;;;;;;;;5017148;28;20101;-83
2021/07/17 09:14:45;;;;;;;11.00;2.40;;;;;;;;;;5019503;28;20029;-83
2021/07/17 09:17:20;;;;;;;6.07;1.75;;;;;;;;;;5018603;28;20029;-83
2021/07/17 09:19:59;;;;;;;10.45;1.80;;;;;;;;;;5028515;28;20032;-84
2021/07/17 09:22:35;;;;;;;6.25;1.75;;;;;;;;;;5036260;28;20022;-84
2021/07/17 09:25:11;;;;;;;7.38;1.75;;;;;;;;;;5026311;28;20091;-84
2021/07/17 09:27:37;;;;;;;7.22;1.73;;;;;;;;;;5025133;28;20093;-84
2021/07/17 09:30:04;;;;;;;7.38;1.85;;;;;;;;;;5025271;28;20032;-83
2021/07/17 09:32:29;;;;;;;10.52;2.10;;;;;;;;;;5019114;28;20121;-84
2021/07/17 09:35:09;;;;;;;5.68;1.70;;;;;;;;;;5022279;28;20049;-83
2021/07/17 09:37:34;;;;;;;11.00;1.50;;;;;;;;;;5019345;28;20092;-84
2021/07/17 09:40:00;;;;;;;8.55;2.00;;;;;;;;;;5019681;28;20473;-85
2021/07/17 09:42:25;;;;;;;5.97;1.95;;;;;;;;;;5019876;28;20030;-85
2021/07/17 09:44:51;;;;;;;12.73;2.22;;;;;;;;;;5019172;28;20025;-84
2021/07/17 09:47:22;;;;;;;6.80;1.58;;;;;;;;;;5020589;28;20029;-84
2021/07/17 09:49:49;;;;;;;13.18;1.67;;;;;;;;;;5019844;28;20022;-84
2021/07/17 09:52:22;;;;;;;8.35;1.70;;;;;;;;;;5019620;28;20084;-84
2021/07/17 09:55:11;;;;;;;9.13;1.65;;;;;;;;;;5023166;28;20158;-84
2021/07/17 09:57:37;;;;;;;6.57;1.55;;;;;;;;;;5020461;28;20026;-84
2021/07/17 10:00:13;;;;;;;15.30;2.30;;;;;;;;;;5019738;28;20030;-84
2021/07/17 10:02:41;;;;;;;5.70;1.25;;;;;;;;;;5020499;28;20365;-85
2021/07/17 10:05:09;;;;;;;7.43;1.80;;;;;;;;;;5028059;28;20068;-85
2021/07/17 10:07:34;;;;;;;8.93;1.60;;;;;;;;;;5021285;28;20038;-85
2021/07/17 10:09:59;;;;;;;6.13;1.33;;;;;;;;;;5020675;28;20125;-86
2021/07/17 10:12:32;;;;;;;5.13;1.55;;;;;;;;;;5022990;28;20194;-85
2021/07/17 10:14:57;;;;;;;3.78;1.17;;;;;;;;;;5033077;28;20042;-87
2021/07/17 10:17:39;;;;;;;6.88;1.30;;;;;;;;;;5026440;28;20036;-86
2021/07/17 10:20:07;;;;;;;6.40;1.73;;;;;;;;;;5024901;28;20101;-84
2021/07/17 10:22:33;;;;;;;8.30;1.85;;;;;;;;;;5019665;28;20026;-85
2021/07/17 10:24:58;;;;;;;6.18;1.40;;;;;;;;;;5018074;28;20022;-84
2021/07/17 10:27:25;;;;;;;4.88;1.33;;;;;;;;;;5018481;28;20040;-84
2021/07/17 10:29:51;;;;;;;6.95;1.33;;;;;;;;;;5017062;28;20108;-84
2021/07/17 10:32:18;;;;;;;4.30;1.20;;;;;;;;;;5016724;28;20045;-84
2021/07/17 10:34:45;;;;;;;10.05;1.60;;;;;;;;;;5016311;28;20026;-85
2021/07/17 10:37:13;;;;;;;6.85;1.48;;;;;;;;;;5017220;28;20054;-85
2021/07/17 10:39:43;;;;;;;7.22;1.30;;;;;;;;;;5017221;28;20559;-85
2021/07/17 10:42:12;;;;;;;9.95;1.95;;;;;;;;;;5016784;28;20037;-85
2021/07/17 10:44:49;;;;;;;5.82;1.75;;;;;;;;;;5015400;28;20468;-85
2021/07/17 10:47:15;;;;;;;4.95;1.70;;;;;;;;;;5016289;28;20030;-85
2021/07/17 10:49:54;;;;;;;5.95;1.55;;;;;;;;;;5016612;28;20524;-85
2021/07/17 10:52:39;;;;;;;5.60;1.67;;;;;;;;;;5021106;28;20112;-85
2021/07/17 10:55:29;;;;;;;5.53;1.08;;;;;;;;;;5022631;28;20022;-85
2021/07/17 10:58:00;;;;;;;8.70;1.20;;;;;;;;;;5018510;28;20033;-84
2021/07/17 11:00:46;;;;;;;6.13;1.83;;;;;;;;;;5018385;28;20026;-84
2021/07/17 11:03:32;;;;;;;5.13;1.60;;;;;;;;;;5017373;28;20029;-85
2021/07/17 11:06:17;;;;;;;11.15;1.52;;;;;;;;;;5017229;28;20057;-85
2021/07/17 11:08:43;;;;;;;9.90;1.73;;;;;;;;;;5016902;28;20085;-85
2021/07/17 11:11:26;;;;;;;6.85;1.40;;;;;;;;;;5016557;28;20429;-86
2021/07/17 11:13:52;;;;;;;4.35;1.30;;;;;;;;;;5014620;28;20030;-85
2021/07/17 11:16:47;;;;;;;5.18;1.55;;;;;;;;;;5015936;28;20025;-86
2021/07/17 11:19:17;;;;;;;5.00;1.13;;;;;;;;;;5015483;28;20037;-87
2021/07/17 11:21:43;;;;;;;4.13;1.30;;;;;;;;;;5016803;28;20025;-85
2021/07/17 11:24:11;;;;;;;9.30;1.40;;;;;;;;;;5017642;28;20559;-85
2021/07/17 11:26:39;;;;;;;6.57;1.50;;;;;;;;;;5017557;28;20036;-85
2021/07/17 11:29:09;;;;;;;4.05;1.50;;;;;;;;;;5016969;28;20473;-85
2021/07/17 11:31:39;;;;;;;7.13;1.63;;;;;;;;;;5016559;28;20076;-85
2021/07/17 11:34:14;;;;;;;4.45;1.10;;;;;;;;;;5016585;28;20481;-85
2021/07/17 11:36:44;;;;;;;7.57;1.33;;;;;;;;;;5015389;28;20036;-86
2021/07/17 11:39:12;;;;;;;5.78;1.35;;;;;;;;;;5015735;28;20026;-85
2021/07/17 11:41:37;;;;;;;7.82;1.48;;;;;;;;;;5029035;28;20105;-85
2021/07/17 11:44:04;;;;;;;5.78;1.52;;;;;;;;;;5037544;28;20033;-85
2021/07/17 11:46:30;;;;;;;3.22;1.48;;;;;;;;;;5027796;28;20045;-85
2021/07/17 11:49:10;;;;;;;5.75;1.23;;;;;;;;;;5022445;28;20026;-86
2021/07/17 11:51:56;;;;;;;5.65;1.40;;;;;;;;;;5033282;28;20402;-85
2021/07/17 11:54:24;;;;;;;6.80;1.00;;;;;;;;;;5023742;28;20544;-85
2021/07/17 11:57:04;;;;;;;3.50;0.93;;;;;;;;;;5016500;28;20401;-85
2021/07/17 11:59:30;;;;;;;8.05;1.45;;;;;;;;;;5015623;28;20029;-87
2021/07/17 12:02:10;;;;;;;6.43;1.35;;;;;;;;;;5015098;28;20037;-84
2021/07/17 12:04:50;;;;;;;4.88;1.25;;;;;;;;;;5018971;28;20108;-85
2021/07/17 12:07:19;;;;;;;8.38;1.50;;;;;;;;;;5016729;28;20080;-85
2021/07/17 12:09:47;;;;;;;4.95;1.40;;;;;;;;;;5015605;28;20060;-85
2021/07/17 12:12:26;;;;;;;5.43;1.15;;;;;;;;;;5015043;28;20045;-85
2021/07/17 12:15:25;;;;;;;4.47;1.10;;;;;;;;;;5014901;28;20059;-86
2021/07/17 12:17:55;;;;;;;5.38;1.23;;;;;;;;;;5016195;28;20021;-87
2021/07/17 12:20:25;;;;;;;6.20;1.48;;;;;;;;;;5016032;28;20057;-86
2021/07/17 12:22:58;;;;;;;4.20;1.40;;;;;;;;;;5019966;28;20026;-86
2021/07/17 12:25:27;;;;;;;4.78;1.15;;;;;;;;;;5020287;28;20034;-86
2021/07/17 12:28:06;;;;;;;4.70;1.17;;;;;;;;;;5019065;28;20057;-86
2021/07/17 12:30:35;;;;;;;4.35;0.93;;;;;;;;;;5017979;28;20448;-86
2021/07/17 12:33:33;;;;;;;2.75;1.00;;;;;;;;;;5016493;28;20028;-86
2021/07/17 12:36:00;;;;;;;8.60;1.08;;;;;;;;;;5014924;28;20053;-86
2021/07/17 12:38:28;;;;;;;3.40;1.15;;;;;;;;;;5014696;28;20025;-88
2021/07/17 12:40:58;;;;;;;7.80;1.35;;;;;;;;;;5014221;28;20018;-86
2021/07/17 12:43:46;;;;;;;3.42;0.90;;;;;;;;;;5013613;28;20425;-87
2021/07/17 12:46:13;;;;;;;4.38;1.05;;;;;;;;;;5013065;28;20421;-87
2021/07/17 12:48:43;;;;;;;5.65;1.10;;;;;;;;;;5013353;28;20085;-86
2021/07/17 12:51:13;;;;;;;5.20;1.08;;;;;;;;;;5014419;28;20101;-86
2021/07/17 12:53:39;;;;;;;2.28;0.95;;;;;;;;;;5014113;28;20022;-87
2021/07/17 12:56:05;;;;;;;6.82;0.80;;;;;;;;;;5016964;28;20056;-85
2021/07/17 12:58:32;;;;;;;4.85;1.33;;;;;;;;;;5015708;28;20030;-86
2021/07/17 13:00:58;;;;;;;3.88;0.82;;;;;;;;;;5015119;28;20473;-86
2021/07/17 13:03:24;;;;;;;5.53;1.10;;;;;;;;;;5014770;28;20080;-87
2021/07/17 13:05:52;;;;;;;3.97;1.00;;;;;;;;;;5015523;28;20022;-86
2021/07/17 13:08:21;;;;;;;5.30;0.90;;;;;;;;;;5015525;28;20109;-86
2021/07/17 13:10:48;;;;;;;4.75;1.27;;;;;;;;;;5016948;28;20034;-86
2021/07/17 13:13:13;;;;;;;4.47;1.08;;;;;;;;;;5015211;28;20504;-86
2021/07/17 13:15:39;;;;;;;4.10;1.58;;;;;;;;;;5014724;28;20018;-85
2021/07/17 13:18:22;;;;;;;3.97;1.10;;;;;;;;;;5019682;28;20029;-86
2021/07/17 13:21:02;;;;;;;2.38;0.90;;;;;;;;;;5020341;28;20030;-85
2021/07/17 13:23:28;;;;;;;7.53;0.90;;;;;;;;;;5014822;28;20026;-85
2021/07/17 13:25:54;;;;;;;1.42;0.90;;;;;;;;;;5026158;28;20041;-85
2021/07/17 13:28:27;;;;;;;2.10;0.80;;;;;;;;;;5031846;28;20030;-85
2021/07/17 13:30:52;;;;;;;2.50;0.93;;;;;;;;;;5018731;28;20386;-85
2021/07/17 13:33:24;;;;;;;2.22;0.98;;;;;;;;;;5015813;28;20033;-88
2021/07/17 13:35:50;;;;;;;1.65;0.68;;;;;;;;;;5015101;28;20026;-86
2021/07/17 13:38:20;;;;;;;3.17;0.93;;;;;;;;;;5015551;28;20099;-86
2021/07/17 13:40:48;;;;;;;2.60;0.90;;;;;;;;;;5015093;28;20053;-86
2021/07/17 13:43:16;;;;;;;2.55;0.85;;;;;;;;;;5013717;28;20021;-87
2021/07/17 13:45:43;;;;;;;1.70;0.75;;;;;;;;;;5014710;28;20109;-86
2021/07/17 13:48:09;;;;;;;1.88;0.70;;;;;;;;;;5015133;28;20114;-86
2021/07/17 13:50:37;;;;;;;6.10;0.98;;;;;;;;;;5013241;28;20028;-86
2021/07/17 13:53:06;;;;;;;1.52;0.65;;;;;;;;;;5014094;28;20036;-85
2021/07/17 13:55:38;;;;;;;3.78;1.13;;;;;;;;;;5021413;28;20030;-86
2021/07/17 13:58:08;;;;;;;5.60;0.80;;;;;;;;;;5021454;28;20033;-85
2021/07/17 14:00:50;;;;;;;3.20;0.80;;;;;;;;;;5021531;28;20018;-86
2021/07/17 14:03:24;;;;;;;7.68;1.10;;;;;;;;;;5032749;28;20022;-85
2021/07/17 14:05:57;;;;;;;5.88;0.80;;;;;;;;;;5034239;28;20040;-87
2021/07/17 14:08:24;;;;;;;2.63;0.73;;;;;;;;;;5034315;28;20026;-86
2021/07/17 14:10:51;;;;;;;7.30;0.90;;;;;;;;;;5022401;28;20040;-86
2021/07/17 14:13:17;;;;;;;1.92;0.70;;;;;;;;;;5020919;28;20101;-87
2021/07/17 14:15:43;;;;;;;2.67;0.70;;;;;;;;;;5019664;28;20026;-87
2021/07/17 14:18:09;;;;;;;7.97;0.70;;;;;;;;;;5020429;28;20178;-88
2021/07/17 14:20:35;;;;;;;2.65;0.77;;;;;;;;;;5019332;28;20067;-87
2021/07/17 14:23:01;;;;;;;7.72;1.10;;;;;;;;;;5020242;28;20022;-86
2021/07/17 14:25:29;;;;;;;6.18;1.17;;;;;;;;;;5021317;28;20025;-86
2021/07/17 14:27:55;;;;;;;3.35;0.70;;;;;;;;;;5019287;28;20034;-86
2021/07/17 14:30:20;;;;;;;2.33;0.85;;;;;;;;;;5021463;28;20021;-87
2021/07/17 14:32:46;;;;;;;2.28;0.75;;;;;;;;;;5026960;28;20032;-87
2021/07/17 14:35:11;;;;;;;2.00;1.00;;;;;;;;;;5022983;28;20026;-86
2021/07/17 14:37:36;;;;;;;3.65;0.90;;;;;;;;;;5021415;28;20511;-87